createdAt,value
2022-12-06T00:01:29.607Z,21.60
2022-12-06T00:03:59.548Z,21.70
2022-12-06T00:06:29.225Z,21.90
2022-12-06T00:08:57.254Z,21.90
2022-12-06T00:11:27.108Z,21.80
2022-12-06T00:13:59.970Z,21.90
2022-12-06T00:16:27.837Z,22.00
2022-12-06T00:18:55.050Z,22.20
2022-12-06T00:21:24.701Z,22.30
2022-12-06T00:23:54.286Z,22.50
2022-12-06T00:26:22.206Z,22.60
2022-12-06T00:28:52.313Z,22.40
2022-12-06T00:31:20.995Z,22.50
2022-12-06T00:33:48.211Z,22.60
2022-12-06T00:36:17.995Z,22.80
2022-12-06T00:38:45.601Z,22.60
2022-12-06T00:41:17.643Z,22.60
2022-12-06T00:43:44.987Z,22.70
2022-12-06T00:46:24.182Z,23.30
2022-12-06T00:48:51.969Z,23.20
2022-12-06T00:51:20.371Z,23.00
2022-12-06T00:53:47.990Z,22.90
2022-12-06T00:56:16.727Z,22.40
2022-12-06T00:58:43.952Z,22.50
2022-12-06T01:01:26.115Z,22.40
2022-12-06T01:03:56.244Z,22.10
2022-12-06T01:06:28.181Z,22.10
2022-12-06T01:08:56.389Z,22.10
2022-12-06T01:11:24.749Z,21.90
2022-12-06T01:13:52.442Z,21.90
2022-12-06T01:16:23.504Z,21.90
2022-12-06T01:19:01.081Z,21.80
2022-12-06T01:21:29.120Z,21.90
2022-12-06T01:23:56.422Z,21.90
2022-12-06T01:26:26.358Z,22.00
2022-12-06T01:28:53.857Z,22.00
2022-12-06T01:31:21.368Z,22.00
2022-12-06T01:33:48.727Z,21.90
2022-12-06T01:36:24.395Z,21.90
2022-12-06T01:38:56.700Z,22.00
2022-12-06T01:41:26.824Z,22.10
2022-12-06T01:43:54.539Z,22.00
2022-12-06T01:46:21.624Z,22.00
2022-12-06T01:49:00.494Z,21.80
2022-12-06T01:51:27.894Z,21.70
2022-12-06T01:53:55.850Z,21.70
2022-12-06T01:56:22.923Z,21.60
2022-12-06T01:58:53.242Z,21.70
2022-12-06T02:01:20.170Z,21.70
2022-12-06T02:03:48.609Z,21.90
2022-12-06T02:06:16.620Z,22.10
2022-12-06T02:08:46.061Z,22.30
2022-12-06T02:11:13.162Z,22.40
2022-12-06T02:13:40.944Z,22.50
2022-12-06T02:16:19.400Z,22.40
2022-12-06T02:18:53.149Z,22.20
2022-12-06T02:21:37.987Z,22.40
2022-12-06T02:24:07.862Z,22.20
2022-12-06T02:26:49.411Z,22.30
2022-12-06T02:29:53.159Z,22.40
2022-12-06T02:32:54.922Z,22.40
2022-12-06T02:35:39.135Z,22.50
2022-12-06T02:38:23.854Z,22.70
2022-12-06T02:40:57.634Z,23.10
2022-12-06T02:43:32.199Z,22.90
2022-12-06T02:46:02.958Z,23.10
2022-12-06T02:48:33.112Z,23.00
2022-12-06T02:51:13.822Z,23.20
2022-12-06T02:53:48.686Z,22.90
2022-12-06T02:56:17.434Z,22.90
2022-12-06T02:58:44.310Z,22.90
2022-12-06T03:01:25.147Z,23.20
2022-12-06T03:04:31.740Z,23.40
2022-12-06T03:07:08.213Z,23.50
2022-12-06T03:09:43.849Z,23.30
2022-12-06T03:12:13.887Z,23.10
2022-12-06T03:15:11.320Z,23.40
2022-12-06T03:17:49.184Z,23.40
2022-12-06T03:20:33.554Z,23.40
2022-12-06T03:23:05.025Z,23.40
2022-12-06T03:25:35.825Z,23.20
2022-12-06T03:28:05.535Z,23.00
2022-12-06T03:30:34.673Z,22.90
2022-12-06T03:33:02.288Z,23.00
2022-12-06T03:35:33.822Z,22.70
2022-12-06T03:38:31.255Z,22.60
2022-12-06T03:41:02.081Z,22.40
2022-12-06T03:43:29.197Z,22.40
2022-12-06T03:46:12.817Z,22.30
2022-12-06T03:49:14.761Z,22.20
2022-12-06T03:51:44.049Z,22.30
2022-12-06T03:54:11.109Z,23.00
2022-12-06T03:56:39.246Z,22.40
2022-12-06T03:59:10.812Z,22.40
2022-12-06T04:01:39.083Z,22.50
2022-12-06T04:04:06.315Z,22.60
2022-12-06T04:06:33.342Z,22.40
2022-12-06T04:09:18.490Z,22.50
2022-12-06T04:11:45.538Z,22.50
2022-12-06T04:14:12.645Z,22.60
2022-12-06T04:16:58.399Z,22.50
2022-12-06T04:19:25.240Z,22.60
2022-12-06T04:22:10.745Z,23.10
2022-12-06T04:24:37.748Z,22.80
2022-12-06T04:27:22.872Z,23.30
2022-12-06T04:30:08.177Z,23.70
2022-12-06T04:32:53.715Z,23.80
2022-12-06T04:35:38.910Z,24.30
2022-12-06T04:38:24.391Z,24.00
2022-12-06T04:40:51.220Z,24.00
2022-12-06T04:43:36.844Z,24.20
2022-12-06T04:46:03.845Z,23.90
2022-12-06T04:48:30.698Z,23.50
2022-12-06T04:50:57.580Z,23.50
2022-12-06T04:53:24.575Z,23.30
2022-12-06T04:55:52.915Z,23.30
2022-12-06T04:58:19.868Z,23.00
2022-12-06T05:00:46.856Z,23.00
2022-12-06T05:03:14.821Z,22.90
2022-12-06T05:05:42.973Z,22.70
2022-12-06T05:08:10.343Z,22.90
2022-12-06T05:10:37.738Z,22.80
2022-12-06T05:13:04.864Z,23.10
2022-12-06T05:15:32.283Z,23.10
2022-12-06T05:17:59.221Z,23.10
2022-12-06T05:20:26.758Z,23.10
2022-12-06T05:22:53.736Z,22.80
2022-12-06T05:25:20.723Z,23.10
2022-12-06T05:27:47.826Z,23.20
2022-12-06T05:30:14.904Z,23.20
2022-12-06T05:32:41.831Z,23.20
2022-12-06T05:35:09.170Z,23.00
2022-12-06T05:37:36.072Z,23.10
2022-12-06T05:40:03.930Z,23.10
2022-12-06T05:42:31.230Z,23.10
2022-12-06T05:44:58.150Z,23.50
2022-12-06T05:47:25.103Z,22.90
2022-12-06T05:49:52.146Z,22.80
2022-12-06T05:52:18.989Z,23.40
2022-12-06T05:54:45.920Z,23.30
2022-12-06T05:57:12.826Z,23.10
2022-12-06T05:59:39.751Z,23.20
2022-12-06T06:02:06.888Z,23.20
2022-12-06T06:04:34.013Z,23.40
2022-12-06T06:07:01.119Z,23.50
2022-12-06T06:09:28.101Z,23.60
2022-12-06T06:11:56.150Z,23.50
2022-12-06T06:14:23.452Z,23.30
2022-12-06T06:16:52.321Z,23.20
2022-12-06T06:19:19.482Z,23.20
2022-12-06T06:21:47.275Z,23.10
2022-12-06T06:24:14.153Z,23.10
2022-12-06T06:26:41.296Z,23.60
2022-12-06T06:29:08.254Z,23.30
2022-12-06T06:31:35.473Z,23.30
2022-12-06T06:34:02.413Z,23.10
2022-12-06T06:36:29.241Z,23.10
2022-12-06T06:38:56.234Z,22.90
2022-12-06T06:41:23.146Z,22.60
2022-12-06T06:43:49.995Z,22.70
2022-12-06T06:46:17.176Z,22.90
2022-12-06T06:48:44.126Z,23.10
2022-12-06T06:51:14.919Z,23.10
2022-12-06T06:53:41.952Z,23.30
2022-12-06T06:56:09.177Z,23.20
2022-12-06T06:58:36.167Z,23.10
2022-12-06T07:01:05.906Z,23.10
2022-12-06T07:03:33.375Z,22.90
2022-12-06T07:06:09.589Z,23.10
2022-12-06T07:08:37.675Z,23.40
2022-12-06T07:11:05.329Z,23.60
2022-12-06T07:13:32.329Z,23.80
2022-12-06T07:15:59.444Z,23.60
2022-12-06T07:18:26.337Z,23.60
2022-12-06T07:21:05.632Z,23.30
2022-12-06T07:23:34.330Z,23.50
2022-12-06T07:26:08.197Z,23.70
2022-12-06T07:28:40.220Z,23.80
2022-12-06T07:31:22.616Z,23.90
2022-12-06T07:33:53.362Z,24.10
2022-12-06T07:36:20.307Z,24.20
2022-12-06T07:38:55.847Z,24.50
2022-12-06T07:41:43.766Z,25.30
2022-12-06T07:44:31.669Z,25.40
2022-12-06T07:46:58.853Z,25.40
2022-12-06T07:49:25.879Z,25.10
2022-12-06T07:51:55.062Z,25.30
2022-12-06T07:54:22.529Z,25.30
2022-12-06T07:56:49.459Z,25.10
2022-12-06T07:59:16.364Z,25.00
2022-12-06T08:01:43.489Z,25.30
2022-12-06T08:04:10.462Z,25.20
2022-12-06T08:06:37.465Z,24.80
2022-12-06T08:09:05.671Z,25.10
2022-12-06T08:11:32.793Z,24.70
2022-12-06T08:13:59.814Z,25.20
2022-12-06T08:16:26.914Z,25.30
2022-12-06T08:18:56.133Z,25.20
2022-12-06T08:21:23.177Z,25.20
2022-12-06T08:23:50.134Z,24.70
2022-12-06T08:26:18.807Z,23.90
2022-12-06T08:28:45.919Z,24.00
2022-12-06T08:31:21.481Z,23.70
2022-12-06T08:33:48.776Z,23.40
2022-12-06T08:36:21.783Z,23.40
2022-12-06T08:38:50.502Z,23.40
2022-12-06T08:41:37.271Z,23.40
2022-12-06T08:44:04.781Z,23.50
2022-12-06T08:46:33.951Z,24.00
2022-12-06T08:49:01.743Z,23.60
2022-12-06T08:51:29.313Z,24.10
2022-12-06T08:53:56.984Z,24.30
2022-12-06T08:56:24.944Z,24.60
2022-12-06T08:58:54.058Z,24.30
2022-12-06T09:01:37.454Z,24.40
2022-12-06T09:04:06.551Z,24.30
2022-12-06T09:06:33.961Z,24.40
2022-12-06T09:09:00.893Z,25.50
2022-12-06T09:11:27.796Z,25.30
2022-12-06T09:13:54.936Z,24.90
2022-12-06T09:16:23.787Z,25.30
2022-12-06T09:18:54.430Z,24.90
2022-12-06T09:21:24.507Z,24.50
2022-12-06T09:23:54.828Z,24.30
2022-12-06T09:26:21.867Z,24.10
2022-12-06T09:28:50.766Z,23.70
2022-12-06T09:31:19.213Z,23.80
2022-12-06T09:33:46.901Z,23.80
2022-12-06T09:36:24.418Z,23.40
2022-12-06T09:38:57.769Z,23.60
2022-12-06T09:41:58.339Z,23.90
2022-12-06T09:44:28.039Z,23.70
2022-12-06T09:47:12.744Z,23.60
2022-12-06T09:50:01.316Z,23.80
2022-12-06T09:52:59.351Z,24.10
2022-12-06T09:55:54.702Z,23.80
2022-12-06T09:58:37.255Z,24.30
2022-12-06T10:01:27.484Z,23.90
2022-12-06T10:04:33.013Z,23.10
2022-12-06T10:07:27.482Z,23.70
2022-12-06T10:10:27.100Z,24.00
2022-12-06T10:13:16.710Z,23.60
2022-12-06T10:16:01.525Z,24.00
2022-12-06T10:18:37.475Z,23.70
2022-12-06T10:21:33.231Z,23.50
2022-12-06T10:24:07.135Z,23.40
2022-12-06T10:26:42.861Z,23.30
2022-12-06T10:29:15.615Z,22.90
2022-12-06T10:32:00.222Z,22.90
2022-12-06T10:34:27.059Z,23.60
2022-12-06T10:37:13.208Z,24.00
2022-12-06T10:39:51.548Z,23.60
2022-12-06T10:42:27.631Z,23.60
2022-12-06T10:44:59.643Z,23.20
2022-12-06T10:47:34.824Z,23.20
2022-12-06T10:50:06.970Z,23.10
2022-12-06T10:52:41.601Z,23.60
2022-12-06T10:55:11.536Z,24.20
2022-12-06T10:57:57.330Z,24.20
2022-12-06T11:00:27.426Z,24.00
2022-12-06T11:03:17.072Z,23.60
2022-12-06T11:05:53.938Z,23.70
2022-12-06T11:08:41.339Z,24.00
2022-12-06T11:11:16.590Z,23.60
2022-12-06T11:14:01.762Z,23.30
2022-12-06T11:16:39.962Z,23.40
2022-12-06T11:19:31.378Z,23.60
2022-12-06T11:22:11.896Z,24.50
2022-12-06T11:24:48.079Z,24.70
2022-12-06T11:27:22.702Z,24.50
2022-12-06T11:29:50.763Z,24.00
2022-12-06T11:32:18.886Z,23.80
2022-12-06T11:34:55.846Z,23.90
2022-12-06T11:37:26.636Z,23.80
2022-12-06T11:40:02.606Z,23.90
2022-12-06T11:42:29.744Z,23.90
2022-12-06T11:45:10.943Z,24.00
2022-12-06T11:47:37.741Z,23.50
2022-12-06T11:50:16.787Z,23.50
2022-12-06T11:53:02.876Z,23.40
2022-12-06T11:55:40.133Z,23.10
2022-12-06T11:58:13.856Z,22.80
2022-12-06T12:01:04.813Z,23.00
2022-12-06T12:03:35.056Z,22.90
2022-12-06T12:06:07.903Z,22.70
2022-12-06T12:08:35.551Z,23.50
2022-12-06T12:11:04.704Z,23.10
2022-12-06T12:13:44.652Z,23.10
2022-12-06T12:16:14.614Z,22.80
2022-12-06T12:18:55.103Z,23.00
2022-12-06T12:21:42.621Z,23.80
2022-12-06T12:27:55.449Z,23.70
2022-12-06T12:30:25.577Z,23.30
2022-12-06T12:33:16.234Z,23.10
2022-12-06T12:35:46.498Z,23.40
2022-12-06T12:38:19.054Z,23.50
2022-12-06T12:40:55.641Z,23.70
2022-12-06T12:43:33.676Z,23.90
2022-12-06T12:46:06.653Z,23.60
2022-12-06T12:48:34.506Z,23.80
2022-12-06T12:51:07.238Z,23.50
2022-12-06T12:53:44.868Z,23.40
2022-12-06T12:56:16.543Z,23.40
2022-12-06T12:58:45.030Z,23.60
2022-12-06T13:01:37.624Z,23.10
2022-12-06T13:04:13.677Z,23.10
2022-12-06T13:07:06.173Z,23.00
2022-12-06T13:09:59.052Z,22.90
2022-12-06T13:12:40.050Z,23.20
2022-12-06T13:15:20.458Z,23.30
2022-12-06T13:17:59.543Z,23.30
2022-12-06T13:20:29.268Z,23.10
2022-12-06T13:23:26.493Z,23.10
2022-12-06T13:26:05.612Z,23.10
2022-12-06T13:28:39.881Z,23.50
2022-12-06T13:31:13.659Z,23.50
2022-12-06T13:33:56.704Z,23.60
2022-12-06T13:36:25.591Z,23.50
2022-12-06T13:38:52.969Z,23.70
2022-12-06T13:41:53.610Z,24.50
2022-12-06T13:45:01.252Z,24.20
2022-12-06T13:47:28.216Z,24.20
2022-12-06T13:50:23.249Z,24.30
2022-12-06T13:52:50.105Z,24.00
2022-12-06T13:55:26.446Z,23.70
2022-12-06T13:57:56.611Z,24.00
2022-12-06T14:00:32.597Z,23.90
2022-12-06T14:03:23.766Z,23.90
2022-12-06T14:06:01.383Z,23.70
2022-12-06T14:08:38.670Z,23.50
2022-12-06T14:11:21.545Z,24.10
2022-12-06T14:13:55.995Z,24.40
2022-12-06T14:16:45.661Z,24.60
2022-12-06T14:19:45.943Z,24.90
2022-12-06T14:22:24.712Z,24.60
2022-12-06T14:25:28.916Z,24.20
2022-12-06T14:28:05.578Z,23.90
2022-12-06T14:30:33.494Z,24.00
2022-12-06T14:33:00.528Z,23.90
2022-12-06T14:35:36.146Z,24.00
2022-12-06T14:38:21.190Z,24.20
2022-12-06T14:41:06.683Z,24.20
2022-12-06T14:43:35.437Z,24.40
2022-12-06T14:46:08.440Z,24.70
2022-12-06T14:48:54.156Z,24.90
2022-12-06T14:51:33.754Z,25.50
2022-12-06T14:54:28.125Z,25.40
2022-12-06T14:56:55.213Z,25.70
2022-12-06T15:00:03.122Z,25.50
2022-12-06T15:02:27.997Z,25.50
2022-12-06T15:04:55.533Z,25.20
2022-12-06T15:07:37.434Z,24.80
2022-12-06T15:10:16.472Z,24.20
2022-12-06T15:12:55.635Z,24.10
2022-12-06T15:15:40.378Z,24.10
2022-12-06T15:18:12.392Z,24.20
2022-12-06T15:20:39.747Z,24.30
2022-12-06T15:23:26.162Z,24.40
2022-12-06T15:25:53.249Z,24.40
2022-12-06T15:28:20.186Z,24.40
2022-12-06T15:30:47.726Z,24.60
2022-12-06T15:33:17.935Z,24.80
2022-12-06T15:35:45.151Z,24.40
2022-12-06T15:38:15.129Z,24.40
2022-12-06T15:40:44.727Z,24.00
2022-12-06T15:43:28.933Z,23.70
2022-12-06T15:45:57.549Z,23.80
2022-12-06T15:48:24.495Z,24.00
2022-12-06T15:50:51.475Z,23.70
2022-12-06T15:53:20.765Z,23.70
2022-12-06T15:55:47.927Z,24.00
2022-12-06T15:58:14.843Z,23.90
2022-12-06T16:00:41.804Z,23.90
2022-12-06T16:03:08.923Z,23.90
2022-12-06T16:05:36.138Z,24.10
2022-12-06T16:08:03.295Z,24.20
2022-12-06T16:11:02.893Z,24.50
2022-12-06T16:13:23.746Z,24.20
2022-12-06T16:15:52.456Z,24.20
2022-12-06T16:18:20.030Z,24.40
2022-12-06T16:20:47.591Z,24.70
2022-12-06T16:24:11.302Z,25.00
2022-12-06T16:26:25.809Z,25.10
2022-12-06T16:28:52.758Z,24.90
2022-12-06T16:31:19.720Z,24.90
2022-12-06T16:33:46.767Z,24.90
2022-12-06T16:36:31.293Z,25.40
2022-12-06T16:39:03.957Z,25.70
2022-12-06T16:41:35.778Z,25.40
2022-12-06T16:44:03.217Z,25.70
2022-12-06T16:46:30.132Z,25.50
2022-12-06T16:49:22.226Z,25.00
2022-12-06T16:51:49.145Z,25.00
2022-12-06T16:54:17.038Z,25.20
2022-12-06T16:56:44.663Z,24.80
2022-12-06T16:59:15.545Z,25.00
2022-12-06T17:01:51.019Z,25.10
2022-12-06T17:04:18.180Z,25.10
2022-12-06T17:06:45.845Z,25.50
2022-12-06T17:09:13.757Z,25.70
2022-12-06T17:12:00.000Z,25.50
2022-12-06T17:14:27.155Z,25.20
2022-12-06T17:16:55.035Z,25.50
2022-12-06T17:19:25.218Z,25.90
2022-12-06T17:21:53.234Z,26.10
2022-12-06T17:24:21.508Z,26.10
2022-12-06T17:26:48.917Z,25.60
2022-12-06T17:29:15.898Z,25.60
2022-12-06T17:31:43.123Z,25.30
2022-12-06T17:34:12.906Z,25.10
2022-12-06T17:36:40.670Z,24.80
2022-12-06T17:39:08.891Z,24.80
2022-12-06T17:41:54.789Z,25.80
2022-12-06T17:44:24.767Z,25.80
2022-12-06T17:46:51.675Z,25.90
2022-12-06T17:49:21.664Z,25.30
2022-12-06T17:51:48.787Z,24.70
2022-12-06T17:54:16.375Z,24.30
2022-12-06T17:56:48.856Z,24.30
2022-12-06T17:59:20.763Z,24.20
2022-12-06T18:04:36.533Z,23.80
2022-12-06T18:07:03.829Z,23.90
2022-12-06T18:09:32.206Z,23.90
2022-12-06T18:12:01.175Z,23.80
2022-12-06T18:14:28.559Z,24.10
2022-12-06T18:16:55.856Z,23.70
2022-12-06T18:19:23.286Z,23.70
2022-12-06T18:21:53.165Z,23.40
2022-12-06T18:24:23.941Z,23.50
2022-12-06T18:26:53.616Z,23.50
2022-12-06T18:29:22.922Z,23.50
2022-12-06T18:31:50.837Z,23.60
2022-12-06T18:34:18.624Z,24.20
2022-12-06T18:36:47.589Z,23.70
2022-12-06T18:39:17.109Z,23.70
2022-12-06T18:41:45.180Z,23.90
2022-12-06T18:44:13.425Z,24.00
2022-12-06T18:46:42.644Z,24.10
2022-12-06T18:49:11.723Z,24.00
2022-12-06T18:51:39.379Z,24.20
2022-12-06T18:54:08.147Z,24.30
2022-12-06T18:56:36.148Z,24.40
2022-12-06T18:59:06.646Z,24.40
2022-12-06T19:01:36.364Z,24.60
2022-12-06T19:04:05.498Z,24.70
2022-12-06T19:06:34.646Z,24.30
2022-12-06T19:09:10.339Z,24.10
2022-12-06T19:11:42.494Z,24.50
2022-12-06T19:14:10.278Z,23.50
2022-12-06T19:16:51.793Z,23.20
2022-12-06T19:19:21.842Z,22.90
2022-12-06T19:21:50.038Z,22.90
2022-12-06T19:24:21.564Z,22.80
2022-12-06T19:26:50.977Z,22.70
2022-12-06T19:29:17.927Z,22.80
2022-12-06T19:31:45.543Z,23.00
2022-12-06T19:34:26.252Z,23.10
2022-12-06T19:36:54.409Z,23.00
2022-12-06T19:39:21.898Z,23.60
2022-12-06T19:42:07.877Z,24.30
2022-12-06T19:44:36.246Z,24.50
2022-12-06T19:47:03.323Z,24.50
2022-12-06T19:49:30.324Z,24.30
2022-12-06T19:51:58.188Z,24.20
2022-12-06T19:54:28.335Z,24.30
2022-12-06T19:56:57.396Z,24.10
2022-12-06T19:59:26.829Z,24.40
2022-12-06T20:01:54.342Z,24.30
2022-12-06T20:04:23.550Z,23.90
2022-12-06T20:06:51.729Z,24.00
2022-12-06T20:09:20.219Z,24.20
2022-12-06T20:12:02.671Z,24.00
2022-12-06T20:14:33.135Z,24.00
2022-12-06T20:17:00.311Z,24.00
2022-12-06T20:19:27.563Z,24.10
2022-12-06T20:21:54.742Z,24.40
2022-12-06T20:24:22.826Z,24.50
2022-12-06T20:26:51.820Z,24.20
2022-12-06T20:29:20.211Z,23.90
2022-12-06T20:31:51.754Z,23.50
2022-12-06T20:34:19.802Z,23.60
2022-12-06T20:36:46.979Z,23.70
2022-12-06T20:39:22.195Z,23.50
2022-12-06T20:41:51.503Z,23.50
2022-12-06T20:44:19.469Z,23.60
2022-12-06T20:46:50.497Z,23.50
2022-12-06T20:49:17.394Z,23.40
2022-12-06T20:51:52.403Z,23.50
2022-12-06T20:54:20.587Z,23.20
2022-12-06T20:56:51.505Z,23.40
2022-12-06T20:59:19.006Z,23.40
2022-12-06T21:01:46.212Z,23.30
2022-12-06T21:04:14.397Z,23.20
2022-12-06T21:06:41.817Z,23.50
2022-12-06T21:09:20.651Z,23.90
2022-12-06T21:11:48.157Z,24.10
2022-12-06T21:14:17.195Z,24.60
2022-12-06T21:16:44.242Z,24.50
2022-12-06T21:19:16.808Z,25.00
2022-12-06T21:21:50.161Z,25.10
2022-12-06T21:24:20.177Z,25.10
2022-12-06T21:26:47.502Z,25.90
2022-12-06T21:29:18.783Z,25.90
2022-12-06T21:31:46.268Z,25.60
2022-12-06T21:34:14.628Z,25.30
2022-12-06T21:36:41.924Z,25.20
2022-12-06T21:39:11.831Z,25.20
2022-12-06T21:41:39.146Z,24.80
2022-12-06T21:44:06.896Z,24.60
2022-12-06T21:46:34.033Z,24.60
2022-12-06T21:49:01.202Z,24.50
2022-12-06T21:51:31.253Z,24.80
2022-12-06T21:53:58.647Z,24.70
2022-12-06T21:56:28.869Z,24.90
2022-12-06T21:58:56.174Z,24.90
2022-12-06T22:01:25.552Z,24.70
2022-12-06T22:03:53.974Z,24.70
2022-12-06T22:06:21.625Z,24.20
2022-12-06T22:08:49.750Z,24.70
2022-12-06T22:11:19.929Z,24.60
2022-12-06T22:13:48.181Z,24.50
2022-12-06T22:16:16.272Z,24.30
2022-12-06T22:18:45.958Z,24.20
2022-12-06T22:21:17.750Z,24.60
2022-12-06T22:23:46.114Z,24.50
2022-12-06T22:26:15.734Z,24.20
2022-12-06T22:28:44.207Z,23.70
2022-12-06T22:31:33.681Z,23.40
2022-12-06T22:34:01.733Z,23.20
2022-12-06T22:36:29.308Z,23.30
2022-12-06T22:38:58.658Z,23.50
2022-12-06T22:41:26.196Z,23.70
2022-12-06T22:43:56.746Z,24.00
2022-12-06T22:46:26.537Z,24.50
2022-12-06T22:48:54.379Z,24.10
2022-12-06T22:51:32.672Z,24.60
2022-12-06T22:54:02.514Z,25.20
2022-12-06T22:56:30.936Z,26.20
2022-12-06T22:58:59.541Z,25.70
2022-12-06T23:01:29.720Z,25.00
2022-12-06T23:03:58.782Z,24.50
2022-12-06T23:06:26.921Z,24.50
2022-12-06T23:08:56.123Z,24.60
2022-12-06T23:11:29.584Z,25.20
2022-12-06T23:13:57.513Z,26.20
2022-12-06T23:16:29.422Z,25.80
2022-12-06T23:18:57.239Z,26.30
2022-12-06T23:21:33.297Z,27.00
2022-12-06T23:24:05.785Z,26.10
2022-12-06T23:26:36.300Z,25.40
2022-12-06T23:29:03.662Z,25.40
2022-12-06T23:31:33.646Z,25.20
2022-12-06T23:34:22.392Z,25.50
2022-12-06T23:36:49.786Z,25.80
2022-12-06T23:39:17.256Z,25.60
2022-12-06T23:41:44.465Z,25.30
2022-12-06T23:44:13.211Z,25.60
2022-12-06T23:46:41.637Z,25.10
2022-12-06T23:49:16.053Z,25.00
2022-12-06T23:51:42.960Z,25.00
2022-12-06T23:54:12.375Z,25.40
2022-12-06T23:56:41.298Z,24.70
2022-12-06T23:59:17.899Z,24.20
